createdAt,value
2024-05-09T00:01:50.654Z,101263.73
2024-05-09T00:07:56.799Z,101264.64
2024-05-09T00:14:22.432Z,101263.13
2024-05-09T00:20:50.435Z,101260.95
2024-05-09T00:27:17.476Z,101254.96
2024-05-09T00:33:11.611Z,101259.58
2024-05-09T00:39:38.632Z,101257.27
2024-05-09T00:45:57.372Z,101255.95
2024-05-09T00:52:02.454Z,101252.98
2024-05-09T00:58:27.889Z,101252.10
2024-05-09T01:04:51.207Z,101252.64
2024-05-09T01:11:17.279Z,101250.96
2024-05-09T01:24:09.544Z,101245.75
2024-05-09T01:30:33.846Z,101241.14
2024-05-09T01:37:13.076Z,101248.90
2024-05-09T01:43:37.347Z,101253.05
2024-05-09T01:50:01.974Z,101250.94
2024-05-09T01:56:27.896Z,101257.45
2024-05-09T02:02:52.444Z,101261.52
2024-05-09T02:09:19.219Z,101256.38
2024-05-09T02:15:47.774Z,101255.70
2024-05-09T02:22:18.225Z,101259.23
2024-05-09T02:28:42.538Z,101261.14
2024-05-09T02:35:09.628Z,101263.11
2024-05-09T02:41:36.922Z,101262.61
2024-05-09T02:48:02.080Z,101261.74
2024-05-09T02:54:28.386Z,101263.06
2024-05-09T03:00:55.345Z,101267.92
2024-05-09T03:07:22.178Z,101270.63
2024-05-09T03:13:49.607Z,101269.90
2024-05-09T03:20:20.574Z,101270.79
2024-05-09T03:26:51.722Z,101277.96
2024-05-09T03:32:58.736Z,101284.29
2024-05-09T03:45:51.253Z,101285.64
2024-05-09T03:52:17.253Z,101290.80
2024-05-09T03:58:41.526Z,101287.95
2024-05-09T04:05:08.367Z,101291.30
2024-05-09T04:11:33.258Z,101291.59
2024-05-09T04:17:51.259Z,101286.64
2024-05-09T04:24:17.308Z,101289.73
2024-05-09T04:30:38.607Z,101286.81
2024-05-09T04:37:08.055Z,101283.64
2024-05-09T04:43:35.515Z,101286.39
2024-05-09T04:50:00.373Z,101287.77
2024-05-09T04:56:26.515Z,101290.13
2024-05-09T05:02:51.434Z,101288.45
2024-05-09T05:09:24.386Z,101289.05
2024-05-09T05:15:50.570Z,101285.02
2024-05-09T05:21:57.217Z,101282.44
2024-05-09T05:28:20.172Z,101286.42
2024-05-09T05:34:25.756Z,101282.60
2024-05-09T05:40:50.339Z,101283.70
2024-05-09T05:47:16.412Z,101286.17
2024-05-09T05:53:42.011Z,101284.51
2024-05-09T06:00:09.792Z,101287.08
2024-05-09T06:05:43.179Z,101291.20
2024-05-09T06:11:17.454Z,101291.34
2024-05-09T06:17:36.170Z,101294.64
2024-05-09T06:23:57.630Z,101300.20
2024-05-09T06:30:30.430Z,101304.58
2024-05-09T06:36:56.176Z,101299.48
2024-05-09T06:43:30.168Z,101296.71
2024-05-09T06:49:17.432Z,101293.90
2024-05-09T06:55:43.491Z,101296.45
2024-05-09T07:01:49.968Z,101288.85
2024-05-09T07:08:15.107Z,101292.88
2024-05-09T07:14:42.717Z,101293.40
2024-05-09T07:27:36.915Z,101282.61
2024-05-09T07:34:02.649Z,101284.97
2024-05-09T07:40:31.683Z,101279.51
2024-05-09T07:53:53.511Z,101280.00
2024-05-09T08:00:29.495Z,101278.67
2024-05-09T08:06:29.481Z,101277.71
2024-05-09T08:12:57.067Z,101280.83
2024-05-09T08:19:22.146Z,101282.38
2024-05-09T08:25:39.020Z,101284.79
2024-05-09T08:32:03.278Z,101286.55
2024-05-09T08:38:31.608Z,101279.86
2024-05-09T08:44:49.375Z,101284.35
2024-05-09T08:51:04.748Z,101284.43
2024-05-09T08:57:27.579Z,101275.52
2024-05-09T09:03:38.375Z,101270.37
2024-05-09T09:10:05.559Z,101274.65
2024-05-09T09:16:19.307Z,101271.80
2024-05-09T09:22:43.692Z,101274.17
2024-05-09T09:29:03.114Z,101276.91
2024-05-09T09:35:32.949Z,101270.63
2024-05-09T09:41:57.704Z,101282.92
2024-05-09T09:48:22.554Z,101276.11
2024-05-09T09:54:48.360Z,101264.61
2024-05-09T10:01:13.377Z,101263.19
2024-05-09T10:07:37.709Z,101254.86
2024-05-09T10:14:04.807Z,101249.54
2024-05-09T10:20:32.553Z,101253.04
2024-05-09T10:26:57.396Z,101245.48
2024-05-09T10:33:22.382Z,101244.42
2024-05-09T10:39:46.734Z,101231.98
2024-05-09T10:46:11.396Z,101232.46
2024-05-09T10:52:16.800Z,101229.15
2024-05-09T10:58:41.511Z,101224.94
2024-05-09T11:05:08.514Z,101216.58
2024-05-09T11:11:33.021Z,101212.53
2024-05-09T11:18:00.733Z,101209.41
2024-05-09T11:24:26.097Z,101212.02
2024-05-09T11:30:51.057Z,101211.63
2024-05-09T11:37:18.970Z,101199.64
2024-05-09T11:43:43.823Z,101188.84
2024-05-09T11:50:10.253Z,101187.89
2024-05-09T11:56:37.207Z,101184.98
2024-05-09T12:03:01.611Z,101177.77
2024-05-09T12:09:26.997Z,101174.77
2024-05-09T12:15:52.869Z,101171.83
2024-05-09T12:22:18.417Z,101165.50
2024-05-09T12:28:35.619Z,101164.35
2024-05-09T12:34:52.671Z,101162.94
2024-05-09T12:41:19.720Z,101151.45
2024-05-09T12:47:48.379Z,101153.94
2024-05-09T12:54:13.830Z,101152.45
2024-05-09T13:00:44.190Z,101139.58
2024-05-09T13:07:09.818Z,101131.20
2024-05-09T13:13:34.187Z,101121.23
2024-05-09T13:19:58.460Z,101113.35
2024-05-09T13:26:22.911Z,101104.55
2024-05-09T13:32:48.001Z,101104.20
2024-05-09T13:39:12.298Z,101101.54
2024-05-09T13:45:37.945Z,101093.23
2024-05-09T13:52:03.936Z,101086.61
2024-05-09T13:58:28.998Z,101082.69
2024-05-09T14:04:56.759Z,101077.52
2024-05-09T14:11:06.412Z,101075.17
2024-05-09T14:17:11.011Z,101069.77
2024-05-09T14:23:17.888Z,101063.99
2024-05-09T14:29:37.187Z,101061.88
2024-05-09T14:35:54.657Z,101052.87
2024-05-09T14:42:10.859Z,101050.66
2024-05-09T14:48:36.949Z,101041.44
2024-05-09T14:55:00.976Z,101040.73
2024-05-09T15:01:27.076Z,101026.23
2024-05-09T15:07:11.574Z,101029.79
2024-05-09T15:13:39.070Z,101023.46
2024-05-09T15:19:46.390Z,101025.27
2024-05-09T15:25:39.769Z,101014.25
2024-05-09T15:31:56.017Z,101006.91
2024-05-09T15:38:21.462Z,100998.85
2024-05-09T15:44:41.855Z,100992.40
2024-05-09T15:51:07.480Z,100984.70
2024-05-09T15:57:02.785Z,100980.73
2024-05-09T16:03:27.196Z,100977.36
2024-05-09T16:09:42.706Z,100974.16
2024-05-09T16:16:08.778Z,100977.68
2024-05-09T16:22:34.861Z,100970.13
2024-05-09T16:28:47.746Z,100961.17
2024-05-09T16:35:12.067Z,100960.79
2024-05-09T16:41:29.168Z,100958.45
2024-05-09T16:47:54.791Z,100956.61
2024-05-09T16:54:23.578Z,100952.77
2024-05-09T17:00:25.594Z,100958.02
2024-05-09T17:06:40.633Z,100955.19
2024-05-09T17:13:08.609Z,100955.95
2024-05-09T17:19:33.017Z,100954.90
2024-05-09T17:25:40.291Z,100955.35
2024-05-09T17:31:38.772Z,100952.55
2024-05-09T17:38:03.072Z,100951.80
2024-05-09T17:44:29.106Z,100950.83
2024-05-09T17:50:48.345Z,100949.49
2024-05-09T17:57:12.904Z,100954.95
2024-05-09T18:03:38.241Z,100955.80
2024-05-09T18:10:07.960Z,100951.92
2024-05-09T18:16:38.088Z,100954.29
2024-05-09T18:22:56.591Z,100952.77
2024-05-09T18:29:22.433Z,100956.52
2024-05-09T18:35:36.762Z,100958.30
2024-05-09T18:41:44.976Z,100964.41
2024-05-09T18:47:54.949Z,100973.52
2024-05-09T18:54:25.894Z,100974.23
2024-05-09T19:00:52.348Z,100981.05
2024-05-09T19:07:27.730Z,100980.17
2024-05-09T19:13:51.882Z,100987.63
2024-05-09T19:20:06.062Z,100995.02
2024-05-09T19:26:31.195Z,100995.42
2024-05-09T19:32:54.607Z,100997.20
2024-05-09T19:38:53.392Z,101000.59
2024-05-09T19:45:17.667Z,101007.23
2024-05-09T19:51:42.603Z,101003.27
2024-05-09T19:58:07.317Z,101009.00
2024-05-09T20:04:34.975Z,101010.73
2024-05-09T20:11:01.584Z,101011.42
2024-05-09T20:17:16.028Z,101014.24
2024-05-09T20:23:40.447Z,101012.63
2024-05-09T20:30:09.653Z,101009.27
2024-05-09T20:36:27.904Z,101011.00
2024-05-09T20:42:52.375Z,101008.73
2024-05-09T20:49:19.289Z,101003.77
2024-05-09T20:55:37.012Z,101005.66
2024-05-09T21:02:02.135Z,101008.16
2024-05-09T21:08:27.075Z,101013.85
2024-05-09T21:14:53.145Z,101019.05
2024-05-09T21:21:12.483Z,101019.86
2024-05-09T21:27:39.421Z,101011.99
2024-05-09T21:34:05.905Z,101011.89
2024-05-09T21:40:35.215Z,101013.08
2024-05-09T21:47:04.022Z,101010.85
2024-05-09T21:53:29.799Z,101010.70
2024-05-09T21:59:44.392Z,101012.88
2024-05-09T22:06:10.027Z,101011.79
2024-05-09T22:12:35.940Z,101011.63
2024-05-09T22:19:01.758Z,101015.06
2024-05-09T22:25:08.974Z,101012.62
2024-05-09T22:31:33.192Z,101015.34
2024-05-09T22:37:50.845Z,101019.03
2024-05-09T22:44:07.802Z,101015.90
2024-05-09T22:50:32.891Z,101012.25
2024-05-09T22:57:08.132Z,101015.80
2024-05-09T23:03:32.515Z,101012.14
2024-05-09T23:09:58.984Z,101009.30
2024-05-09T23:16:09.565Z,101006.98
2024-05-09T23:22:35.002Z,101002.22
2024-05-09T23:29:03.539Z,100994.11
2024-05-09T23:35:11.487Z,100991.39
2024-05-09T23:41:35.759Z,100991.31
2024-05-09T23:47:52.060Z,100988.19
2024-05-09T23:54:16.817Z,100985.49
